Time;durP1;ratioP1;P1;durP2;ratioP2;P2;SDS_P1;SDS_P2;PMS_P1;PMS_P2;Temp;Humidity;BMP_temperature;BMP_pressure;BME280_temperature;BME280_humidity;BME280_pressure;Samples;Min_cycle;Max_cycle;Signal;HPM_P1;HPM_P2
2023/05/05 00:01:28;;;;;;;5.35;3.28;;;12.80;99.90;;;;;;4962480;28;20049;-70
2023/05/05 00:03:54;;;;;;;6.30;3.53;;;;;;;;;;4964640;28;20433;-70
2023/05/05 00:06:20;;;;;;;7.78;3.53;;;;;;;;;;4962603;28;20473;-69
2023/05/05 00:08:46;;;;;;;6.47;3.65;;;12.90;99.90;;;;;;4964574;28;20054;-69
2023/05/05 00:11:12;;;;;;;7.95;3.65;;;;;;;;;;4957732;28;20050;-69
2023/05/05 00:13:38;;;;;;;7.97;3.83;;;13.00;99.90;;;;;;4960707;28;20047;-69
2023/05/05 00:16:03;;;;;;;15.25;4.00;;;12.70;99.90;;;;;;4963370;28;20579;-69
2023/05/05 00:18:30;;;;;;;7.10;3.97;;;;;;;;;;4956486;28;20123;-69
2023/05/05 00:20:55;;;;;;;8.40;3.75;;;12.90;99.90;;;;;;4961810;28;20051;-70
2023/05/05 00:23:21;;;;;;;10.45;4.15;;;;;;;;;;4963079;28;20043;-70
2023/05/05 00:25:47;;;;;;;6.05;3.67;;;;;;;;;;4945418;28;20421;-69
2023/05/05 00:28:13;;;;;;;8.25;3.83;;;12.90;99.90;;;;;;4963532;28;20070;-69
2023/05/05 00:30:39;;;;;;;8.05;4.03;;;;;;;;;;4965469;28;20093;-69
2023/05/05 00:33:05;;;;;;;8.93;4.47;;;;;;;;;;4967757;28;20062;-70
2023/05/05 00:35:31;;;;;;;5.65;4.40;;;;;;;;;;4960467;28;20050;-69
2023/05/05 00:37:58;;;;;;;7.90;3.38;;;;;;;;;;4963352;28;20568;-70
2023/05/05 00:40:24;;;;;;;11.77;4.03;;;;;;;;;;4961399;28;20073;-69
2023/05/05 00:42:51;;;;;;;6.60;5.05;;;;;;;;;;4961439;28;20055;-70
2023/05/05 00:45:17;;;;;;;9.90;3.97;;;;;;;;;;4967899;28;20082;-69
2023/05/05 00:47:57;;;;;;;11.25;4.63;;;12.80;99.90;;;;;;4962108;28;20047;-70
2023/05/05 00:50:24;;;;;;;9.27;4.68;;;13.00;99.90;;;;;;4965191;28;20047;-69
2023/05/05 00:52:52;;;;;;;9.73;5.00;;;13.00;99.90;;;;;;4966427;28;20046;-69
2023/05/05 00:55:18;;;;;;;12.80;4.40;;;12.90;99.90;;;;;;4958408;28;20409;-70
2023/05/05 00:57:44;;;;;;;10.82;4.88;;;12.70;99.90;;;;;;4974446;28;20058;-69
2023/05/05 01:00:10;;;;;;;10.40;4.93;;;12.70;99.90;;;;;;4968355;28;20133;-69
2023/05/05 01:02:38;;;;;;;9.98;4.28;;;12.80;99.90;;;;;;4987344;28;20375;-70
2023/05/05 01:05:05;;;;;;;7.32;4.53;;;12.50;99.90;;;;;;4970253;28;20097;-69
2023/05/05 01:07:52;;;;;;;8.70;4.97;;;12.70;99.90;;;;;;4987360;28;20054;-69
2023/05/05 01:11:08;;;;;;;5.43;4.00;;;12.60;99.90;;;;;;4965398;28;20121;-69
2023/05/05 01:13:52;;;;;;;8.73;4.85;;;12.50;99.90;;;;;;4927305;28;20493;-70
2023/05/05 01:16:26;;;;;;;8.05;4.03;;;12.70;99.90;;;;;;4970529;28;20082;-69
2023/05/05 01:19:26;;;;;;;9.52;5.15;;;12.80;99.90;;;;;;4969399;28;20088;-69
2023/05/05 01:22:02;;;;;;;10.05;5.30;;;;;;;;;;4958772;28;20543;-70
2023/05/05 01:24:58;;;;;;;11.35;5.07;;;12.80;99.90;;;;;;4969885;28;20050;-69
2023/05/05 01:27:33;;;;;;;6.30;4.45;;;;;;;;;;4969949;28;20078;-69
2023/05/05 01:30:07;;;;;;;;;;;12.80;99.90;;;;;;4987155;28;20045;-69
2023/05/05 01:32:37;;;;;;;7.60;4.97;;;12.60;99.90;;;;;;4969574;28;20030;-70
2023/05/05 01:35:14;;;;;;;13.32;5.20;;;12.60;99.90;;;;;;4970111;28;20046;-70
2023/05/05 01:37:53;;;;;;;10.65;4.72;;;12.70;99.90;;;;;;4984812;28;20129;-70
2023/05/05 01:40:23;;;;;;;10.40;5.38;;;12.90;99.90;;;;;;4968089;28;20046;-69
2023/05/05 01:42:50;;;;;;;8.63;5.07;;;12.60;99.90;;;;;;4968907;28;20038;-70
2023/05/05 01:45:18;;;;;;;8.77;4.70;;;12.70;99.90;;;;;;4987364;28;20566;-69
2023/05/05 01:48:22;;;;;;;10.02;5.20;;;12.70;99.90;;;;;;4976365;28;20046;-70
2023/05/05 01:50:51;;;;;;;8.43;4.70;;;13.00;99.90;;;;;;4985263;28;20045;-69
2023/05/05 01:53:18;;;;;;;7.47;4.63;;;12.90;99.90;;;;;;4969678;28;20046;-69
2023/05/05 01:55:45;;;;;;;8.55;4.90;;;12.80;99.90;;;;;;4986323;28;20516;-69
2023/05/05 01:58:13;;;;;;;8.82;4.93;;;12.80;99.90;;;;;;4969053;28;20065;-69
2023/05/05 02:00:40;;;;;;;10.82;5.18;;;12.80;99.90;;;;;;4986270;28;20740;-69
2023/05/05 02:03:08;;;;;;;8.77;5.00;;;12.80;99.90;;;;;;4985966;28;20042;-69
2023/05/05 02:05:36;;;;;;;8.77;4.90;;;12.80;99.90;;;;;;4965734;28;20061;-69
2023/05/05 02:08:02;;;;;;;11.10;5.30;;;;;;;;;;4968272;28;20100;-69
2023/05/05 02:10:28;;;;;;;9.00;5.65;;;;;;;;;;4986402;28;20046;-70
2023/05/05 02:12:55;;;;;;;6.28;4.72;;;12.80;99.90;;;;;;4966459;28;20045;-69
2023/05/05 02:15:23;;;;;;;7.93;4.88;;;;;;;;;;4962715;28;20046;-69
2023/05/05 02:17:51;;;;;;;12.05;5.60;;;12.60;99.90;;;;;;4985728;28;20043;-69
2023/05/05 02:20:18;;;;;;;7.55;5.13;;;12.70;99.90;;;;;;4967811;28;20050;-69
2023/05/05 02:22:44;;;;;;;10.45;5.32;;;;;;;;;;4985376;28;20133;-69
2023/05/05 02:25:10;;;;;;;8.38;5.38;;;;;;;;;;4985938;28;20066;-69
2023/05/05 02:27:40;;;;;;;10.15;5.45;;;12.80;99.90;;;;;;4967859;28;20046;-70
2023/05/05 02:30:08;;;;;;;11.48;5.70;;;12.60;99.90;;;;;;4985875;28;20042;-69
2023/05/05 02:32:35;;;;;;;8.75;5.22;;;;;;;;;;4967691;28;20128;-69
2023/05/05 02:35:11;;;;;;;10.18;5.28;;;12.70;99.90;;;;;;4967187;28;20455;-69
2023/05/05 02:37:39;;;;;;;10.10;5.78;;;12.70;99.90;;;;;;4980078;28;20034;-69
2023/05/05 02:40:07;;;;;;;10.57;5.10;;;12.70;99.90;;;;;;4965276;28;20081;-69
2023/05/05 02:42:37;;;;;;;9.60;4.97;;;12.70;99.90;;;;;;4958636;28;20053;-69
2023/05/05 02:45:13;;;;;;;10.18;5.75;;;12.50;99.90;;;;;;4951300;28;20051;-69
2023/05/05 02:47:39;;;;;;;10.30;5.47;;;;;;;;;;4985870;28;20100;-69
2023/05/05 02:50:06;;;;;;;8.95;5.95;;;12.40;99.90;;;;;;4963940;28;20497;-69
2023/05/05 02:52:33;;;;;;;11.48;5.82;;;;;;;;;;4966485;28;20046;-70
2023/05/05 02:55:00;;;;;;;11.05;6.45;;;12.50;99.90;;;;;;4967194;28;20054;-69
2023/05/05 02:57:37;;;;;;;7.38;5.32;;;12.40;99.90;;;;;;4977960;28;20505;-69
2023/05/05 03:00:14;;;;;;;10.43;5.55;;;12.30;99.90;;;;;;4965412;28;20086;-69
2023/05/05 03:02:44;;;;;;;10.05;5.20;;;;;;;;;;4984060;28;20066;-70
2023/05/05 03:05:21;;;;;;;8.05;6.18;;;12.40;99.90;;;;;;4967561;28;20042;-69
2023/05/05 03:07:48;;;;;;;10.80;5.57;;;;;;;;;;4984319;28;20105;-69
2023/05/05 03:10:19;;;;;;;10.93;6.03;;;;;;;;;;4968036;28;20046;-69
2023/05/05 03:12:47;;;;;;;8.70;5.18;;;;;;;;;;4966551;28;20489;-69
2023/05/05 03:15:14;;;;;;;11.13;5.97;;;;;;;;;;4964748;28;20101;-69
2023/05/05 03:17:41;;;;;;;10.48;5.72;;;12.40;99.90;;;;;;4967462;28;20057;-69
2023/05/05 03:20:09;;;;;;;8.85;5.80;;;;;;;;;;4963251;28;20049;-70
2023/05/05 03:22:36;;;;;;;9.73;5.78;;;12.30;99.90;;;;;;4967524;28;20046;-70
2023/05/05 03:25:02;;;;;;;7.85;5.63;;;12.40;99.90;;;;;;4984042;28;20047;-69
2023/05/05 03:27:28;;;;;;;10.95;6.50;;;;;;;;;;4965216;28;20042;-69
2023/05/05 03:29:55;;;;;;;11.57;7.00;;;;;;;;;;4983904;28;20045;-69
2023/05/05 03:32:22;;;;;;;12.82;6.93;;;12.30;99.90;;;;;;4966700;28;20812;-69
2023/05/05 03:34:48;;;;;;;11.13;6.60;;;;;;;;;;4966597;28;20042;-69
2023/05/05 03:37:14;;;;;;;10.60;6.93;;;;;;;;;;4951642;28;20049;-69
2023/05/05 03:39:40;;;;;;;12.68;6.95;;;;;;;;;;4966444;28;20046;-70
2023/05/05 03:42:06;;;;;;;12.70;6.97;;;;;;;;;;4985271;28;20524;-69
2023/05/05 03:44:33;;;;;;;12.57;7.45;;;;;;;;;;4981770;28;20546;-70
2023/05/05 03:46:58;;;;;;;12.68;7.80;;;;;;;;;;4968643;28;20129;-70
2023/05/05 03:49:24;;;;;;;10.68;6.93;;;;;;;;;;4966474;28;20205;-69
2023/05/05 03:51:50;;;;;;;9.93;6.95;;;;;;;;;;4966916;28;20061;-70
2023/05/05 03:54:16;;;;;;;12.43;8.05;;;;;;;;;;4965755;28;20578;-70
2023/05/05 03:56:42;;;;;;;12.10;8.02;;;11.70;99.90;;;;;;4984415;28;20038;-69
2023/05/05 03:59:08;;;;;;;10.40;7.40;;;11.60;99.90;;;;;;4965109;28;20054;-69
2023/05/05 04:01:34;;;;;;;11.07;7.80;;;;;;;;;;4956248;28;20038;-70
2023/05/05 04:04:00;;;;;;;13.68;8.70;;;;;;;;;;4968934;28;20524;-70
2023/05/05 04:06:26;;;;;;;13.68;7.95;;;;;;;;;;4969742;28;20588;-69
2023/05/05 04:08:52;;;;;;;13.60;8.40;;;;;;;;;;4970397;28;20212;-69
2023/05/05 04:11:18;;;;;;;12.70;9.05;;;11.60;99.90;;;;;;4969191;28;20038;-69
2023/05/05 04:13:45;;;;;;;13.80;9.00;;;;;;;;;;4970476;28;20217;-70
2023/05/05 04:16:11;;;;;;;11.50;8.57;;;;;;;;;;4969385;28;20046;-70
2023/05/05 04:18:37;;;;;;;13.65;9.35;;;;;;;;;;4970715;28;20050;-70
2023/05/05 04:21:03;;;;;;;14.98;8.88;;;11.30;99.90;;;;;;4985474;28;20053;-70
2023/05/05 04:23:29;;;;;;;11.48;8.20;;;;;;;;;;4970487;28;20390;-70
2023/05/05 04:25:55;;;;;;;11.85;8.48;;;;;;;;;;4968954;28;20074;-69
2023/05/05 04:28:21;;;;;;;11.50;8.05;;;;;;;;;;4970202;28;20116;-69
2023/05/05 04:30:47;;;;;;;11.35;9.15;;;;;;;;;;4967575;28;20042;-70
2023/05/05 04:33:13;;;;;;;16.13;8.93;;;11.40;99.90;;;;;;4982889;28;20034;-69
2023/05/05 04:35:39;;;;;;;15.90;8.93;;;;;;;;;;4986734;28;20182;-69
2023/05/05 04:38:04;;;;;;;11.27;9.07;;;11.40;99.90;;;;;;4979958;28;20057;-70
2023/05/05 04:40:30;;;;;;;11.98;8.10;;;;;;;;;;4965713;28;20097;-70
2023/05/05 04:42:56;;;;;;;10.93;8.43;;;;;;;;;;4967624;28;20038;-70
2023/05/05 04:45:22;;;;;;;13.50;8.75;;;11.30;99.90;;;;;;4968324;28;20047;-70
2023/05/05 04:47:48;;;;;;;16.58;9.07;;;;;;;;;;4988055;28;20673;-70
2023/05/05 04:50:14;;;;;;;13.55;8.80;;;11.40;99.90;;;;;;4969965;28;20042;-70
2023/05/05 04:52:40;;;;;;;15.13;9.43;;;;;;;;;;4970155;28;20042;-70
2023/05/05 04:55:06;;;;;;;12.20;9.00;;;;;;;;;;4969925;28;20077;-70
2023/05/05 04:57:32;;;;;;;17.52;9.73;;;;;;;;;;4970103;28;20100;-70
2023/05/05 04:59:59;;;;;;;14.00;9.10;;;11.40;99.90;;;;;;4969534;28;20054;-70
2023/05/05 05:02:25;;;;;;;11.38;9.38;;;;;;;;;;4987982;28;20101;-70
2023/05/05 05:04:51;;;;;;;14.23;9.23;;;;;;;;;;4985286;28;20054;-70
2023/05/05 05:07:17;;;;;;;12.15;8.65;;;;;;;;;;4970310;28;20061;-70
2023/05/05 05:09:43;;;;;;;13.13;9.15;;;;;;;;;;4970129;28;20046;-70
2023/05/05 05:12:09;;;;;;;13.52;9.32;;;11.40;99.90;;;;;;4987619;28;20504;-70
2023/05/05 05:14:38;;;;;;;18.90;9.23;;;11.30;99.90;;;;;;4965105;28;20061;-70
2023/05/05 05:17:05;;;;;;;12.35;9.63;;;11.50;99.90;;;;;;4970112;28;20442;-70
2023/05/05 05:19:31;;;;;;;15.55;9.13;;;;;;;;;;4970226;28;20078;-70
2023/05/05 05:21:57;;;;;;;16.45;10.48;;;;;;;;;;4970163;28;20501;-70
2023/05/05 05:24:24;;;;;;;11.98;9.00;;;11.50;99.90;;;;;;4987750;28;20038;-70
2023/05/05 05:26:50;;;;;;;17.02;10.02;;;;;;;;;;4969872;28;20109;-70
2023/05/05 05:29:17;;;;;;;18.63;10.00;;;;;;;;;;4970557;28;20850;-70
2023/05/05 05:31:43;;;;;;;13.80;9.80;;;;;;;;;;4969802;28;20975;-70
2023/05/05 05:34:09;;;;;;;14.18;8.65;;;;;;;;;;4970382;28;20096;-70
2023/05/05 05:36:35;;;;;;;14.82;10.25;;;;;;;;;;4987611;28;21251;-70
2023/05/05 05:39:00;;;;;;;15.13;10.23;;;11.70;99.90;;;;;;4970658;28;20178;-70
2023/05/05 05:41:26;;;;;;;15.60;11.38;;;;;;;;;;4987374;28;20134;-69
2023/05/05 05:43:52;;;;;;;13.05;10.02;;;;;;;;;;4967873;28;20533;-70
2023/05/05 05:46:18;;;;;;;12.88;9.60;;;;;;;;;;4969938;28;20050;-70
2023/05/05 05:48:44;;;;;;;14.15;9.60;;;;;;;;;;4983685;28;20093;-70
2023/05/05 05:51:09;;;;;;;16.55;9.73;;;11.70;99.90;;;;;;4969946;28;20050;-70
2023/05/05 05:53:35;;;;;;;16.55;10.30;;;;;;;;;;4988070;28;20035;-70
2023/05/05 05:56:01;;;;;;;14.10;10.25;;;;;;;;;;4967635;28;20160;-70
2023/05/05 05:58:27;;;;;;;15.35;10.98;;;;;;;;;;4986930;28;20708;-70
2023/05/05 06:00:53;;;;;;;17.38;11.43;;;;;;;;;;4984638;28;20061;-69
2023/05/05 06:03:19;;;;;;;12.65;10.60;;;;;;;;;;4965186;28;20416;-70
2023/05/05 06:05:45;;;;;;;17.75;10.52;;;11.90;99.90;;;;;;4985126;28;20046;-70
2023/05/05 06:08:11;;;;;;;14.38;10.82;;;12.10;99.90;;;;;;4968818;28;20046;-70
2023/05/05 06:10:37;;;;;;;16.23;11.48;;;;;;;;;;4985127;28;20050;-70
2023/05/05 06:13:02;;;;;;;16.75;10.30;;;12.10;99.90;;;;;;4968941;28;20409;-70
2023/05/05 06:15:28;;;;;;;16.30;10.40;;;;;;;;;;4967779;28;20046;-70
2023/05/05 06:17:54;;;;;;;16.40;10.75;;;12.40;99.90;;;;;;4968618;28;20054;-70
2023/05/05 06:20:20;;;;;;;10.95;9.20;;;;;;;;;;4962972;28;20073;-71
2023/05/05 06:22:46;;;;;;;13.18;9.48;;;;;;;;;;4964686;28;20221;-71
2023/05/05 06:25:12;;;;;;;15.25;10.15;;;;;;;;;;4967559;28;20056;-71
2023/05/05 06:27:37;;;;;;;15.57;9.15;;;14.20;99.90;;;;;;4967272;28;20411;-71
2023/05/05 06:30:03;;;;;;;13.25;8.40;;;;;;;;;;4966259;28;20038;-70
2023/05/05 06:32:29;;;;;;;13.02;8.02;;;16.00;99.90;;;;;;4968144;28;20053;-71
2023/05/05 06:34:55;;;;;;;13.02;8.52;;;;;;;;;;4979415;28;20046;-71
2023/05/05 06:37:21;;;;;;;12.18;8.05;;;;;;;;;;4967259;28;20931;-71
2023/05/05 06:39:46;;;;;;;11.88;7.82;;;18.20;99.90;;;;;;4952343;28;20129;-71
2023/05/05 06:42:12;;;;;;;10.55;7.30;;;19.40;99.90;;;;;;4983831;28;20042;-71
2023/05/05 06:44:37;;;;;;;12.52;6.25;;;19.70;99.90;;;;;;4984157;28;20054;-71
2023/05/05 06:47:03;;;;;;;8.75;6.30;;;20.00;99.90;;;;;;4967396;28;20050;-71
2023/05/05 06:49:28;;;;;;;10.68;5.97;;;21.10;99.90;;;;;;4968197;28;20133;-71
2023/05/05 06:51:54;;;;;;;9.02;6.68;;;21.20;99.90;;;;;;4982810;28;20038;-71
2023/05/05 06:54:19;;;;;;;9.63;6.10;;;21.40;99.90;;;;;;4961269;28;20128;-71
2023/05/05 06:56:45;;;;;;;10.82;6.78;;;21.00;99.90;;;;;;4966079;28;20093;-71
2023/05/05 06:59:11;;;;;;;11.90;7.00;;;20.00;99.90;;;;;;4981578;28;20055;-71
2023/05/05 07:01:40;;;;;;;8.88;6.45;;;19.00;99.90;;;;;;4966537;28;20047;-71
2023/05/05 07:04:06;;;;;;;13.85;7.38;;;;;;;;;;4986940;28;20089;-71
2023/05/05 07:06:32;;;;;;;9.98;7.35;;;;;;;;;;4960665;28;20441;-71
2023/05/05 07:08:58;;;;;;;14.88;7.85;;;;;;;;;;4960300;28;20173;-71
2023/05/05 07:11:24;;;;;;;11.38;8.35;;;;;;;;;;4981378;28;20113;-70
2023/05/05 07:13:50;;;;;;;11.40;9.00;;;;;;;;;;4962260;28;20045;-71
2023/05/05 07:16:16;;;;;;;13.48;9.18;;;16.70;99.90;;;;;;4965936;28;20125;-71
2023/05/05 07:18:42;;;;;;;14.75;9.32;;;;;;;;;;4968015;28;20046;-71
2023/05/05 07:21:07;;;;;;;12.18;9.27;;;16.60;99.90;;;;;;4968104;28;20057;-71
2023/05/05 07:23:33;;;;;;;10.90;9.20;;;;;;;;;;4968065;28;20404;-71
2023/05/05 07:25:59;;;;;;;12.50;8.57;;;;;;;;;;4967617;28;20053;-71
2023/05/05 07:28:25;;;;;;;9.48;8.15;;;16.40;99.90;;;;;;4965540;28;20050;-71
2023/05/05 07:30:51;;;;;;;16.50;10.55;;;;;;;;;;4980969;28;20057;-70
2023/05/05 07:33:17;;;;;;;14.32;9.13;;;;;;;;;;4968197;28;20181;-71
2023/05/05 07:35:44;;;;;;;14.27;9.73;;;;;;;;;;4963734;28;20417;-70
2023/05/05 07:38:10;;;;;;;13.80;8.60;;;16.50;99.90;;;;;;4965950;28;20156;-71
2023/05/05 07:40:36;;;;;;;12.82;10.15;;;;;;;;;;4964840;28;20100;-71
2023/05/05 07:43:01;;;;;;;12.70;9.77;;;16.60;99.90;;;;;;4964803;28;20050;-71
2023/05/05 07:45:28;;;;;;;17.85;10.30;;;;;;;;;;4960974;28;20057;-71
2023/05/05 07:47:54;;;;;;;15.32;10.05;;;;;;;;;;4965092;28;20046;-71
2023/05/05 07:50:20;;;;;;;17.45;10.15;;;;;;;;;;4960496;28;20124;-70
2023/05/05 07:52:46;;;;;;;13.98;11.18;;;;;;;;;;4963967;28;20057;-70
2023/05/05 07:55:12;;;;;;;14.23;10.55;;;;;;;;;;4976455;28;20043;-71
2023/05/05 07:57:38;;;;;;;13.73;9.50;;;16.70;99.90;;;;;;4975007;28;20043;-71
2023/05/05 08:00:04;;;;;;;13.00;9.68;;;;;;;;;;4963755;28;20042;-71
2023/05/05 08:02:30;;;;;;;16.77;11.45;;;16.80;99.90;;;;;;4964314;28;20049;-71
2023/05/05 08:04:56;;;;;;;15.73;10.50;;;;;;;;;;4967611;28;20050;-71
2023/05/05 08:07:22;;;;;;;18.20;11.90;;;;;;;;;;4964453;28;20053;-71
2023/05/05 08:09:48;;;;;;;17.65;12.73;;;;;;;;;;4960528;28;20049;-71
2023/05/05 08:12:14;;;;;;;19.08;13.05;;;17.20;99.90;;;;;;4957016;28;20042;-71
2023/05/05 08:14:41;;;;;;;21.40;13.57;;;17.40;99.90;;;;;;4959529;28;20125;-71
2023/05/05 08:17:07;;;;;;;20.88;14.40;;;;;;;;;;4959478;28;20047;-71
2023/05/05 08:19:33;;;;;;;24.48;14.75;;;;;;;;;;4963275;28;20060;-71
2023/05/05 08:22:00;;;;;;;20.77;14.80;;;17.40;99.90;;;;;;4960966;28;20105;-71
2023/05/05 08:24:25;;;;;;;21.70;14.25;;;17.50;99.90;;;;;;4967695;28;20061;-71
2023/05/05 08:26:51;;;;;;;18.60;14.25;;;17.50;99.90;;;;;;4966564;28;20073;-71
2023/05/05 08:29:17;;;;;;;25.05;15.95;;;;;;;;;;4967388;28;20133;-71
2023/05/05 08:31:43;;;;;;;19.15;14.25;;;17.60;99.90;;;;;;4984174;28;20105;-71
2023/05/05 08:34:09;;;;;;;22.23;15.02;;;17.50;99.90;;;;;;4964166;28;20038;-71
2023/05/05 08:36:35;;;;;;;18.85;12.93;;;;;;;;;;4962679;28;20045;-71
2023/05/05 08:39:00;;;;;;;25.50;13.98;;;17.70;99.90;;;;;;4984032;28;20759;-71
2023/05/05 08:41:26;;;;;;;21.10;15.38;;;17.60;99.90;;;;;;4955853;28;20046;-71
2023/05/05 08:43:53;;;;;;;22.67;13.35;;;;;;;;;;4984367;28;20412;-71
2023/05/05 08:46:19;;;;;;;23.67;14.05;;;18.00;99.90;;;;;;4980109;28;20046;-71
2023/05/05 08:48:45;;;;;;;17.65;13.23;;;;;;;;;;4964444;28;20097;-71
2023/05/05 08:51:18;;;;;;;22.30;13.80;;;18.20;99.90;;;;;;4986425;28;20042;-71
2023/05/05 08:53:53;;;;;;;18.25;13.63;;;18.10;99.90;;;;;;4986837;28;20097;-71
2023/05/05 08:56:22;;;;;;;17.92;13.45;;;17.90;99.90;;;;;;4985374;28;20046;-71
2023/05/05 08:58:49;;;;;;;21.73;13.32;;;18.00;99.90;;;;;;4968083;28;20050;-72
2023/05/05 09:01:15;;;;;;;22.45;12.98;;;18.20;99.90;;;;;;4968620;28;20054;-72
2023/05/05 09:03:42;;;;;;;18.60;13.68;;;18.10;99.90;;;;;;4987845;28;20060;-72
2023/05/05 09:06:08;;;;;;;20.75;13.85;;;;;;;;;;4981969;28;20098;-72
2023/05/05 09:08:36;;;;;;;17.67;12.23;;;18.40;99.90;;;;;;4969159;28;20056;-72
2023/05/05 09:11:01;;;;;;;19.10;12.85;;;18.40;99.90;;;;;;4987548;28;20097;-71
2023/05/05 09:13:29;;;;;;;19.15;13.48;;;18.70;99.90;;;;;;4959849;28;20583;-71
2023/05/05 09:15:54;;;;;;;18.08;12.02;;;18.70;99.90;;;;;;4969413;28;20042;-72
2023/05/05 09:18:20;;;;;;;16.20;10.82;;;;;;;;;;4948337;28;20531;-71
2023/05/05 09:20:46;;;;;;;15.13;11.48;;;18.80;99.90;;;;;;4968587;28;20514;-72
2023/05/05 09:23:17;;;;;;;18.48;10.52;;;19.20;99.90;;;;;;4969842;28;20042;-72
2023/05/05 09:26:00;;;;;;;17.23;10.02;;;19.20;99.90;;;;;;4986109;28;20579;-72
2023/05/05 09:28:26;;;;;;;19.95;10.18;;;19.20;99.90;;;;;;4986837;28;20433;-71
2023/05/05 09:30:52;;;;;;;15.10;10.68;;;19.70;99.90;;;;;;4983502;28;20046;-72
2023/05/05 09:33:29;;;;;;;15.55;10.02;;;19.80;99.90;;;;;;4953280;28;20073;-72
2023/05/05 09:35:55;;;;;;;19.90;11.43;;;19.70;99.90;;;;;;4968189;28;20311;-72
2023/05/05 09:38:23;;;;;;;15.90;11.60;;;19.90;99.90;;;;;;4962585;28;20126;-72
2023/05/05 09:40:50;;;;;;;19.08;11.60;;;20.10;99.90;;;;;;4976812;28;20046;-72
2023/05/05 09:43:17;;;;;;;13.63;9.07;;;19.90;99.90;;;;;;4979818;28;20336;-71
2023/05/05 09:45:43;;;;;;;15.15;11.55;;;20.10;99.90;;;;;;4981776;28;20083;-72
2023/05/05 09:48:29;;;;;;;16.27;11.02;;;19.90;99.90;;;;;;4963726;28;20506;-71
2023/05/05 09:50:56;;;;;;;17.20;11.20;;;20.10;99.90;;;;;;4963892;28;20121;-72
2023/05/05 09:53:23;;;;;;;12.88;8.20;;;20.30;99.90;;;;;;4960450;28;20509;-72
2023/05/05 09:55:53;;;;;;;17.25;9.73;;;21.70;99.90;;;;;;4978357;28;20078;-72
2023/05/05 09:58:22;;;;;;;15.00;9.18;;;20.30;99.90;;;;;;4987445;28;20062;-71
2023/05/05 10:00:48;;;;;;;14.80;8.20;;;20.50;99.90;;;;;;4969634;28;20057;-71
2023/05/05 10:03:14;;;;;;;9.95;6.90;;;20.40;99.90;;;;;;4952859;28;20042;-71
2023/05/05 10:05:50;;;;;;;13.88;5.95;;;21.60;99.90;;;;;;4986281;28;20050;-72
2023/05/05 10:08:21;;;;;;;11.65;7.50;;;20.70;99.90;;;;;;4966064;28;20074;-72
2023/05/05 10:10:59;;;;;;;13.38;8.40;;;20.80;99.90;;;;;;4963869;28;20106;-72
2023/05/05 10:13:25;;;;;;;11.57;8.05;;;20.80;99.90;;;;;;4979103;28;20042;-71
2023/05/05 10:15:54;;;;;;;16.25;9.00;;;20.90;99.90;;;;;;4967598;28;20649;-72
2023/05/05 10:18:21;;;;;;;11.32;7.60;;;20.90;99.90;;;;;;4965387;28;20096;-72
2023/05/05 10:21:03;;;;;;;13.73;8.10;;;20.50;99.90;;;;;;4965366;28;20042;-72
2023/05/05 10:23:47;;;;;;;13.48;8.25;;;20.60;99.90;;;;;;4965418;28;20069;-72
2023/05/05 10:26:14;;;;;;;11.47;7.17;;;20.50;99.90;;;;;;4963880;28;20097;-72
2023/05/05 10:29:00;;;;;;;11.10;6.35;;;20.40;99.90;;;;;;4980600;28;20034;-72
2023/05/05 10:31:36;;;;;;;8.07;5.40;;;20.60;99.90;;;;;;4960350;28;20073;-71
2023/05/05 10:34:19;;;;;;;8.10;5.35;;;20.60;99.90;;;;;;4967167;28;20141;-72
2023/05/05 10:36:45;;;;;;;7.18;5.15;;;21.50;99.90;;;;;;4962103;28;20053;-72
2023/05/05 10:39:15;;;;;;;10.35;6.72;;;20.70;99.90;;;;;;4978323;28;20050;-72
2023/05/05 10:41:40;;;;;;;13.48;8.57;;;22.40;99.90;;;;;;4966900;28;20404;-71
2023/05/05 10:44:09;;;;;;;12.50;4.93;;;21.60;99.90;;;;;;4959134;28;20034;-72
2023/05/05 10:46:35;;;;;;;9.77;5.15;;;20.90;99.90;;;;;;4957313;28;20893;-72
2023/05/05 10:49:18;;;;;;;7.90;3.78;;;20.80;99.90;;;;;;4961394;28;20070;-71
2023/05/05 10:51:46;;;;;;;12.10;4.97;;;20.70;99.90;;;;;;4982233;28;20065;-72
2023/05/05 10:54:39;;;;;;;8.23;5.82;;;20.90;99.90;;;;;;4976702;28;20049;-72
2023/05/05 10:57:08;;;;;;;11.77;6.35;;;20.80;99.90;;;;;;4928518;28;20086;-72
2023/05/05 10:59:36;;;;;;;6.05;2.58;;;21.10;99.90;;;;;;4969033;28;20440;-71
2023/05/05 11:02:25;;;;;;;5.32;3.50;;;21.00;99.90;;;;;;4964903;28;20042;-71
2023/05/05 11:05:15;;;;;;;8.02;4.93;;;20.70;99.90;;;;;;4980795;28;20158;-71
2023/05/05 11:07:45;;;;;;;8.82;4.60;;;20.90;99.90;;;;;;4960378;28;20054;-71
2023/05/05 11:10:12;;;;;;;10.73;5.95;;;21.00;99.90;;;;;;4957552;28;20038;-71
2023/05/05 11:13:01;;;;;;;9.35;6.05;;;22.80;99.90;;;;;;4979172;28;20492;-71
2023/05/05 11:15:26;;;;;;;10.25;5.55;;;20.80;99.90;;;;;;4962926;28;20051;-71
2023/05/05 11:17:57;;;;;;;13.18;5.95;;;20.90;99.90;;;;;;4965773;28;20046;-71
2023/05/05 11:20:35;;;;;;;12.98;7.93;;;20.60;99.90;;;;;;4967068;28;20050;-71
2023/05/05 11:23:03;;;;;;;10.48;7.03;;;20.30;99.90;;;;;;4967264;28;20050;-71
2023/05/05 11:25:35;;;;;;;11.82;6.97;;;20.50;99.90;;;;;;4965698;28;20049;-71
2023/05/05 11:28:07;;;;;;;11.93;6.80;;;20.60;99.90;;;;;;4964800;28;20230;-71
2023/05/05 11:30:34;;;;;;;10.60;6.30;;;20.40;99.90;;;;;;4960846;28;20216;-71
2023/05/05 11:33:22;;;;;;;7.90;5.40;;;20.10;99.90;;;;;;4964875;28;20515;-71
2023/05/05 11:36:01;;;;;;;9.70;4.78;;;20.00;99.90;;;;;;4965190;28;20042;-70
2023/05/05 11:38:36;;;;;;;7.22;2.92;;;20.00;99.90;;;;;;4962610;28;20377;-70
2023/05/05 11:41:26;;;;;;;8.23;2.80;;;20.20;99.90;;;;;;4968213;28;20053;-71
2023/05/05 11:44:28;;;;;;;6.03;3.00;;;20.10;99.90;;;;;;4980800;28;20080;-71
2023/05/05 11:46:56;;;;;;;6.15;3.17;;;20.00;99.90;;;;;;4952824;28;20508;-71
2023/05/05 11:49:38;;;;;;;8.18;3.30;;;19.90;99.90;;;;;;4966381;28;20217;-70
2023/05/05 11:52:08;;;;;;;6.93;3.47;;;19.80;99.90;;;;;;4960122;28;20142;-71
2023/05/05 11:54:40;;;;;;;5.30;3.50;;;19.70;99.90;;;;;;4981796;28;20042;-71
2023/05/05 11:57:07;;;;;;;5.00;2.53;;;19.60;99.90;;;;;;4977005;28;20657;-71
2023/05/05 12:00:01;;;;;;;4.45;2.00;;;19.50;99.90;;;;;;4980440;28;20090;-70
2023/05/05 12:02:28;;;;;;;6.15;3.85;;;19.40;99.90;;;;;;4967384;28;20097;-71
2023/05/05 12:04:55;;;;;;;5.35;3.00;;;19.10;99.90;;;;;;4952052;28;20058;-71
2023/05/05 12:07:24;;;;;;;4.47;2.50;;;19.00;99.90;;;;;;4979063;28;20050;-71
2023/05/05 12:09:50;;;;;;;4.55;3.00;;;18.80;99.90;;;;;;4964373;28;20844;-72
2023/05/05 12:12:16;;;;;;;7.18;3.78;;;18.70;99.90;;;;;;4964076;28;20137;-71
2023/05/05 12:14:51;;;;;;;9.23;4.45;;;18.40;99.90;;;;;;4979593;28;20051;-71
2023/05/05 12:17:18;;;;;;;9.68;4.97;;;18.30;99.90;;;;;;4965096;28;20409;-71
2023/05/05 12:19:52;;;;;;;7.57;4.00;;;18.10;99.90;;;;;;4967228;28;20046;-71
2023/05/05 12:22:19;;;;;;;7.13;3.60;;;17.90;99.90;;;;;;4965509;28;20054;-71
2023/05/05 12:24:53;;;;;;;7.82;4.20;;;17.80;99.90;;;;;;4967339;28;20033;-70
2023/05/05 12:27:18;;;;;;;9.02;4.65;;;17.70;99.90;;;;;;4966916;28;20051;-70
2023/05/05 12:29:44;;;;;;;8.40;4.75;;;;;;;;;;4966030;28;20389;-70
2023/05/05 12:32:18;;;;;;;9.85;5.20;;;17.50;99.90;;;;;;4969492;28;20050;-70
2023/05/05 12:34:44;;;;;;;9.27;5.45;;;17.40;99.90;;;;;;4967850;28;20328;-71
2023/05/05 12:37:10;;;;;;;8.32;4.93;;;17.30;99.90;;;;;;4971034;28;20149;-70
2023/05/05 12:39:35;;;;;;;9.60;5.70;;;17.20;99.90;;;;;;4966968;28;20138;-70
2023/05/05 12:42:05;;;;;;;7.55;3.72;;;17.00;99.90;;;;;;4986923;28;20054;-70
2023/05/05 12:44:38;;;;;;;8.20;3.38;;;16.80;99.90;;;;;;4964905;28;20046;-70
2023/05/05 12:47:04;;;;;;;5.47;3.15;;;;;;;;;;4966829;28;20503;-70
2023/05/05 12:49:33;;;;;;;8.68;4.20;;;;;;;;;;4962180;28;20052;-70
2023/05/05 12:51:59;;;;;;;7.78;4.00;;;16.40;99.90;;;;;;4977678;28;20097;-70
2023/05/05 12:54:28;;;;;;;8.35;5.10;;;16.20;99.90;;;;;;4961997;28;20065;-69
2023/05/05 12:56:58;;;;;;;9.10;4.00;;;;;;;;;;4981407;28;20050;-71
2023/05/05 12:59:24;;;;;;;9.00;3.30;;;;;;;;;;4966469;28;20066;-72
2023/05/05 13:01:55;;;;;;;7.00;3.05;;;15.90;99.90;;;;;;4983388;28;20133;-73
2023/05/05 13:04:22;;;;;;;7.30;3.22;;;16.00;99.90;;;;;;4965549;28;20050;-74
2023/05/05 13:06:49;;;;;;;9.18;2.63;;;15.70;99.90;;;;;;4965940;28;20057;-72
2023/05/05 13:09:22;;;;;;;3.10;2.33;;;15.60;99.90;;;;;;4967686;28;20382;-73
2023/05/05 13:11:48;;;;;;;6.28;2.10;;;;;;;;;;4984449;28;20046;-74
2023/05/05 13:14:14;;;;;;;5.40;2.05;;;;;;;;;;4968780;28;20812;-74
2023/05/05 13:16:40;;;;;;;6.60;2.10;;;;;;;;;;4968907;28;20448;-73
2023/05/05 13:19:06;;;;;;;4.93;2.95;;;15.30;99.90;;;;;;4968243;28;20046;-73
2023/05/05 13:21:32;;;;;;;6.80;2.05;;;;;;;;;;4985755;28;20489;-73
2023/05/05 13:23:58;;;;;;;5.57;2.47;;;;;;;;;;4967297;28;20042;-74
2023/05/05 13:26:24;;;;;;;7.63;2.92;;;;;;;;;;4983022;28;20043;-73
2023/05/05 13:28:50;;;;;;;5.97;2.20;;;;;;;;;;4983074;28;20046;-71